Decoded Metar for KGSO (GREENSBORO in NC, USA) (IATA:GSO) | Meteo·Mobile Aviation Weather
aviador You're here:

KGSO Decoded Metar

GREENSBORO in NC, USA
Report Time2018-09-21 16:54:00
UTC Time2018-09-21 17:39:09
Flight Rules vfr VFR
Wind230° at 06 kt
W.Decomp.*RWY 23: 5.9 kt HW 0.8 kt RCW
RWY 32: 0.8 kt HW 5.9 kt LCW
W.Rank230° ranks 3
Current wind is below 230° avg. (7.2)
Visibility9999 m
Phenomena:N/A
Clouds:Scattered 028 Hf
Expected CloudBase > 2,800 ft AGL from Temp-Dew spread
CeilingNone
Temp29°C (ISA +16)
Dew Point22°C (66% RH)
Heat Index32.0°C
QNH1022 hPa
Density Alt2,762 ft
Elevation902 ft
Report Wrong Elevation
Raw Report
METAR KGSO 211654Z 23006KT 10SM SCT028 29/22 A3019 RMK AO2 SLP211 T02890217=

Extra information for KGSO:More info

Metar Taf Metar & Taf Last 4 Metars F.Rules Stats Wind Profile Meteogram Temp Stats Airport Information Weather charts Add Link Nearby VenuesMetar ALERT Operation Metar Decoded Social comments

AIRNAV info for KGSO